Time;durP1;ratioP1;P1;durP2;ratioP2;P2;SDS_P1;SDS_P2;PMS_P1;PMS_P2;Temp;Humidity;BMP_temperature;BMP_pressure;BME280_temperature;BME280_humidity;BME280_pressure;Samples;Min_cycle;Max_cycle;Signal;HPM_P1;HPM_P2
2022/04/13 00:01:54;;;;;;;4.53;2.00;;;14.60;87.20;;;;;;6233628;28;20126;-81
2022/04/13 00:04:55;;;;;;;9.63;1.70;;;14.50;87.00;;;;;;6231152;28;20043;-81
2022/04/13 00:08:00;;;;;;;4.10;2.13;;;14.50;86.80;;;;;;6230631;28;20089;-81
2022/04/13 00:11:03;;;;;;;7.50;2.35;;;14.50;86.60;;;;;;6232179;28;20062;-81
2022/04/13 00:14:06;;;;;;;8.45;1.88;;;14.60;86.60;;;;;;6234503;28;20196;-81
2022/04/13 00:17:07;;;;;;;8.43;1.88;;;14.50;86.60;;;;;;6235633;28;20046;-81
2022/04/13 00:20:10;;;;;;;6.60;1.90;;;14.50;86.80;;;;;;6236410;28;20563;-81
2022/04/13 00:23:12;;;;;;;4.88;1.70;;;14.40;87.00;;;;;;6238922;28;20109;-81
2022/04/13 00:26:15;;;;;;;3.30;1.92;;;14.40;87.10;;;;;;6239903;28;20050;-81
2022/04/13 00:29:18;;;;;;;11.73;2.05;;;14.40;87.40;;;;;;6241013;28;20046;-81
2022/04/13 00:32:20;;;;;;;3.92;1.80;;;14.40;87.50;;;;;;6240246;23;20060;-82
2022/04/13 00:35:22;;;;;;;2.78;1.63;;;14.40;87.90;;;;;;6215174;28;20565;-81
2022/04/13 00:38:24;;;;;;;2.97;1.80;;;14.40;88.00;;;;;;6213649;28;20054;-79
2022/04/13 00:41:27;;;;;;;6.43;3.38;;;14.40;88.20;;;;;;6211087;28;20042;-79
2022/04/13 00:44:30;;;;;;;3.53;1.80;;;14.40;88.20;;;;;;6213040;28;20144;-80
2022/04/13 00:47:32;;;;;;;4.38;2.00;;;14.30;88.20;;;;;;6212739;28;20125;-82
2022/04/13 00:50:34;;;;;;;2.97;1.73;;;14.30;88.20;;;;;;6209017;28;20101;-81
2022/04/13 00:53:36;;;;;;;2.65;1.58;;;14.30;88.30;;;;;;6211050;28;20046;-82
2022/04/13 00:56:42;;;;;;;7.95;2.47;;;14.20;88.50;;;;;;6210747;28;20042;-82
2022/04/13 00:59:47;;;;;;;4.88;2.15;;;14.10;88.90;;;;;;6211207;28;20058;-80
2022/04/13 01:02:49;;;;;;;3.42;1.70;;;14.10;89.10;;;;;;6210111;28;20122;-80
2022/04/13 01:05:53;;;;;;;8.15;1.83;;;14.10;89.10;;;;;;6209376;28;20056;-81
2022/04/13 01:08:56;;;;;;;2.58;1.58;;;14.10;89.10;;;;;;6206532;28;20130;-80
2022/04/13 01:11:59;;;;;;;4.20;2.35;;;14.10;89.10;;;;;;6209315;28;20050;-79
2022/04/13 01:15:01;;;;;;;8.75;2.70;;;14.20;89.10;;;;;;6207902;28;20056;-81
2022/04/13 01:18:03;;;;;;;3.15;1.95;;;14.20;89.00;;;;;;6207315;28;20076;-81
2022/04/13 01:21:06;;;;;;;5.68;1.95;;;14.20;88.90;;;;;;6208074;28;20048;-80
2022/04/13 01:24:10;;;;;;;3.33;1.75;;;14.20;88.80;;;;;;6208728;28;20051;-79
2022/04/13 01:27:11;;;;;;;3.55;1.63;;;14.30;88.60;;;;;;6208610;28;20122;-82
2022/04/13 01:30:14;;;;;;;3.55;1.75;;;14.30;88.80;;;;;;6207228;28;20061;-82
2022/04/13 01:33:16;;;;;;;5.47;2.17;;;14.40;88.50;;;;;;6206681;28;20408;-81
2022/04/13 01:36:19;;;;;;;6.53;1.70;;;14.40;88.60;;;;;;6208888;28;20051;-80
2022/04/13 01:39:22;;;;;;;3.03;1.50;;;14.50;88.60;;;;;;6207629;28;20122;-79
2022/04/13 01:42:24;;;;;;;4.35;1.83;;;14.40;88.80;;;;;;6210963;28;20046;-81
2022/04/13 01:45:26;;;;;;;6.18;1.90;;;14.40;89.20;;;;;;6208382;28;20117;-80
2022/04/13 01:48:31;;;;;;;3.70;1.55;;;14.30;89.40;;;;;;6208966;28;20177;-81
2022/04/13 01:51:33;;;;;;;4.50;1.52;;;14.20;89.50;;;;;;6207549;28;20415;-80
2022/04/13 01:54:37;;;;;;;8.52;1.35;;;14.20;89.80;;;;;;6207121;28;20133;-81
2022/04/13 01:57:39;;;;;;;4.82;1.60;;;14.20;89.90;;;;;;6207958;28;20126;-81
2022/04/13 02:00:41;;;;;;;3.90;1.60;;;14.20;89.80;;;;;;6207848;28;20488;-80
2022/04/13 02:03:43;;;;;;;4.65;1.90;;;14.30;89.80;;;;;;6209225;28;20054;-81
2022/04/13 02:06:45;;;;;;;8.98;1.45;;;14.30;89.60;;;;;;6206182;28;20042;-83
2022/04/13 02:09:48;;;;;;;9.15;1.70;;;14.30;89.40;;;;;;6204869;28;20038;-82
2022/04/13 02:12:49;;;;;;;3.83;1.48;;;14.30;89.70;;;;;;6206907;28;20050;-82
2022/04/13 02:15:51;;;;;;;4.78;1.70;;;14.30;89.50;;;;;;6208617;28;20107;-79
2022/04/13 02:18:53;;;;;;;6.32;1.65;;;14.30;89.90;;;;;;6208283;28;20057;-81
2022/04/13 02:21:55;;;;;;;3.40;1.95;;;14.30;90.00;;;;;;6209458;28;20463;-82
2022/04/13 02:25:00;;;;;;;5.55;2.03;;;14.30;90.00;;;;;;6210187;28;20141;-80
2022/04/13 02:28:02;;;;;;;5.80;1.67;;;14.10;90.10;;;;;;6210221;28;20101;-80
2022/04/13 02:31:04;;;;;;;5.18;2.08;;;14.00;90.20;;;;;;6211699;28;20422;-80
2022/04/13 02:34:05;;;;;;;10.23;2.20;;;14.00;90.30;;;;;;6211088;28;20050;-80
2022/04/13 02:37:10;;;;;;;4.57;1.63;;;13.90;90.40;;;;;;6209436;28;20048;-81
2022/04/13 02:40:13;;;;;;;8.73;2.58;;;13.90;90.50;;;;;;6207532;28;20415;-81
2022/04/13 02:43:15;;;;;;;6.75;1.98;;;14.00;90.40;;;;;;6205975;28;20058;-81
2022/04/13 02:46:17;;;;;;;6.00;1.98;;;13.90;90.30;;;;;;6204048;28;20056;-82
2022/04/13 02:49:18;;;;;;;2.88;1.67;;;13.80;90.50;;;;;;6205272;28;20042;-81
2022/04/13 02:52:20;;;;;;;4.25;1.77;;;13.80;90.40;;;;;;6205530;28;20050;-81
2022/04/13 02:55:23;;;;;;;2.65;1.38;;;13.80;90.40;;;;;;6201871;28;20069;-81
2022/04/13 02:58:25;;;;;;;3.85;1.83;;;13.80;90.50;;;;;;6199068;28;20113;-81
2022/04/13 03:01:27;;;;;;;4.07;1.65;;;13.70;90.50;;;;;;6199634;28;20042;-81
2022/04/13 03:04:32;;;;;;;10.40;2.42;;;13.60;90.60;;;;;;6200133;28;20108;-81
2022/04/13 03:07:33;;;;;;;3.63;2.03;;;13.60;90.70;;;;;;6199644;28;20784;-81
2022/04/13 03:10:37;;;;;;;4.05;1.58;;;13.60;90.70;;;;;;6199077;28;20054;-81
2022/04/13 03:13:39;;;;;;;5.25;2.08;;;13.50;90.70;;;;;;6200346;28;20225;-82
2022/04/13 03:16:40;;;;;;;6.53;1.67;;;13.50;90.80;;;;;;6192932;28;20133;-81
2022/04/13 03:19:42;;;;;;;4.97;1.30;;;13.50;90.80;;;;;;6199896;28;20081;-80
2022/04/13 03:22:44;;;;;;;4.45;1.80;;;13.40;90.80;;;;;;6200319;28;20459;-80
2022/04/13 03:25:48;;;;;;;2.97;1.75;;;13.30;90.90;;;;;;6200046;28;20052;-81
2022/04/13 03:28:50;;;;;;;8.98;4.55;;;13.20;90.80;;;;;;6199617;28;20046;-82
2022/04/13 03:31:52;;;;;;;6.53;2.00;;;13.10;90.90;;;;;;6199308;28;20057;-82
2022/04/13 03:34:54;;;;;;;6.25;1.60;;;13.00;91.10;;;;;;6200511;28;20128;-81
2022/04/13 03:37:55;;;;;;;7.65;2.33;;;13.00;91.50;;;;;;6200016;28;20128;-80
2022/04/13 03:40:58;;;;;;;3.58;1.98;;;12.90;91.40;;;;;;6200785;28;20084;-77
2022/04/13 03:44:00;;;;;;;6.20;1.77;;;12.70;91.30;;;;;;6209342;28;20134;-84
2022/04/13 03:47:02;;;;;;;3.95;1.85;;;12.60;91.50;;;;;;6210972;28;20571;-84
2022/04/13 03:50:05;;;;;;;4.00;1.88;;;12.60;91.70;;;;;;6212320;28;20599;-83
2022/04/13 03:53:06;;;;;;;5.13;1.60;;;12.40;91.70;;;;;;6220313;28;20427;-83
2022/04/13 03:56:10;;;;;;;4.55;1.52;;;12.40;91.80;;;;;;6214423;28;20125;-83
2022/04/13 03:59:11;;;;;;;5.60;1.55;;;12.40;91.90;;;;;;6214256;28;20130;-82
2022/04/13 04:02:14;;;;;;;4.15;2.22;;;12.40;91.90;;;;;;6212188;28;20109;-83
2022/04/13 04:05:17;;;;;;;8.65;1.90;;;12.30;91.90;;;;;;6212205;28;20112;-82
2022/04/13 04:08:18;;;;;;;6.25;1.83;;;12.20;92.10;;;;;;6212153;28;20054;-82
2022/04/13 04:11:21;;;;;;;8.23;3.00;;;12.20;92.00;;;;;;6210068;28;20078;-82
2022/04/13 04:14:23;;;;;;;9.02;2.10;;;12.10;92.20;;;;;;6208650;28;20135;-83
2022/04/13 04:17:25;;;;;;;5.93;2.45;;;12.10;92.20;;;;;;6204571;28;20684;-82
2022/04/13 04:20:27;;;;;;;4.88;1.50;;;12.10;92.20;;;;;;6204799;28;20058;-82
2022/04/13 04:23:29;;;;;;;5.38;1.55;;;12.00;92.20;;;;;;6205365;28;20050;-82
2022/04/13 04:26:32;;;;;;;7.18;2.00;;;12.00;92.30;;;;;;6206799;28;20587;-83
2022/04/13 04:29:35;;;;;;;4.78;1.85;;;11.90;92.20;;;;;;6205870;28;20046;-82
2022/04/13 04:32:36;;;;;;;6.43;1.90;;;11.80;92.40;;;;;;6206379;28;20054;-82
2022/04/13 04:35:39;;;;;;;8.20;2.40;;;11.70;92.60;;;;;;6205024;28;20050;-82
2022/04/13 04:38:40;;;;;;;3.17;1.52;;;11.70;92.70;;;;;;6205674;28;20046;-82
2022/04/13 04:41:44;;;;;;;2.28;1.38;;;11.60;92.80;;;;;;6204465;28;20133;-81
2022/04/13 04:44:46;;;;;;;4.15;1.90;;;11.50;92.80;;;;;;6204803;28;20061;-82
2022/04/13 04:47:49;;;;;;;4.72;1.85;;;11.50;92.90;;;;;;6204620;28;20050;-84
2022/04/13 04:50:50;;;;;;;4.10;2.00;;;11.50;92.90;;;;;;6205074;28;20054;-82
2022/04/13 04:53:52;;;;;;;7.10;1.80;;;11.50;93.10;;;;;;6203817;28;20038;-83
2022/04/13 04:56:55;;;;;;;4.05;2.00;;;11.60;93.00;;;;;;6202525;28;20533;-82
2022/04/13 04:59:57;;;;;;;5.15;1.77;;;11.60;92.90;;;;;;6201450;28;20046;-83
2022/04/13 05:02:59;;;;;;;4.35;2.22;;;11.60;92.80;;;;;;6200735;28;20046;-82
2022/04/13 05:06:01;;;;;;;8.88;1.92;;;11.70;92.70;;;;;;6210287;28;20423;-82
2022/04/13 05:09:02;;;;;;;4.55;1.60;;;11.80;92.60;;;;;;6226133;28;20048;-82
2022/04/13 05:12:06;;;;;;;7.18;1.65;;;11.90;92.50;;;;;;6219184;28;20519;-82
2022/04/13 05:15:09;;;;;;;2.65;1.50;;;12.10;92.40;;;;;;6201125;28;20129;-82
2022/04/13 05:18:11;;;;;;;4.22;1.95;;;12.30;92.20;;;;;;6200495;28;20130;-81
2022/04/13 05:21:13;;;;;;;7.30;1.58;;;12.40;92.00;;;;;;6201199;28;20522;-82
2022/04/13 05:24:15;;;;;;;4.50;1.83;;;12.50;91.90;;;;;;6201598;28;20509;-82
2022/04/13 05:27:18;;;;;;;2.97;1.25;;;12.60;91.80;;;;;;6203124;28;20050;-82
2022/04/13 05:30:20;;;;;;;6.47;1.63;;;12.70;91.60;;;;;;6200382;28;20416;-82
2022/04/13 05:33:22;;;;;;;10.27;2.00;;;12.80;91.50;;;;;;6200202;28;20411;-82
2022/04/13 05:36:23;;;;;;;4.88;2.08;;;13.10;91.30;;;;;;6201318;28;20050;-81
2022/04/13 05:39:26;;;;;;;7.72;2.65;;;13.30;91.00;;;;;;6200091;28;20053;-83
2022/04/13 05:42:32;;;;;;;9.50;2.85;;;13.60;90.70;;;;;;6200063;28;20464;-82
2022/04/13 05:45:34;;;;;;;10.48;3.72;;;13.90;90.30;;;;;;6200435;28;20046;-82
2022/04/13 05:48:36;;;;;;;10.10;3.00;;;14.20;89.90;;;;;;6201668;28;20448;-80
2022/04/13 05:51:38;;;;;;;9.90;3.22;;;14.50;89.00;;;;;;6172881;28;20058;-79
2022/04/13 05:54:40;;;;;;;9.95;4.00;;;14.80;88.10;;;;;;6213522;28;20046;-80
2022/04/13 05:57:43;;;;;;;11.85;4.10;;;15.10;87.10;;;;;;6227880;28;20181;-84
2022/04/13 06:00:45;;;;;;;8.30;3.45;;;15.50;86.10;;;;;;6224477;28;20585;-81
2022/04/13 06:03:47;;;;;;;10.70;2.08;;;15.80;85.10;;;;;;6225257;28;20058;-78
2022/04/13 06:06:49;;;;;;;7.50;2.05;;;16.10;84.20;;;;;;6225071;28;20070;-83
2022/04/13 06:09:50;;;;;;;6.65;2.13;;;16.40;83.20;;;;;;6225632;28;20125;-82
2022/04/13 06:12:54;;;;;;;7.72;3.60;;;16.80;82.50;;;;;;6202763;28;20080;-81
2022/04/13 06:15:56;;;;;;;4.60;2.00;;;17.10;81.40;;;;;;6200887;28;20054;-79
2022/04/13 06:18:58;;;;;;;11.15;2.28;;;17.40;81.20;;;;;;6198754;28;20125;-81
2022/04/13 06:21:59;;;;;;;5.95;1.85;;;17.80;79.50;;;;;;6209848;28;20570;-79
2022/04/13 06:25:03;;;;;;;8.10;1.77;;;18.10;78.40;;;;;;6221552;28;20112;-80
2022/04/13 06:28:06;;;;;;;5.28;1.92;;;18.40;77.50;;;;;;6225515;28;20682;-81
2022/04/13 06:31:08;;;;;;;5.10;1.60;;;18.80;75.60;;;;;;6224335;28;20113;-80
2022/04/13 06:34:10;;;;;;;7.70;4.50;;;19.20;74.30;;;;;;6225177;28;20050;-81
2022/04/13 06:37:12;;;;;;;15.35;2.10;;;19.70;72.50;;;;;;6227128;28;20074;-83
2022/04/13 06:40:14;;;;;;;2.88;1.90;;;20.10;70.90;;;;;;6225949;28;20570;-81
2022/04/13 06:43:18;;;;;;;5.00;1.73;;;20.40;69.40;;;;;;6225010;28;20057;-81
2022/04/13 06:46:20;;;;;;;6.47;2.15;;;20.80;68.30;;;;;;6225672;28;20056;-80
2022/04/13 06:49:22;;;;;;;4.93;2.22;;;21.10;67.80;;;;;;6225648;28;20046;-81
2022/04/13 06:52:23;;;;;;;3.30;2.00;;;21.20;67.70;;;;;;6218753;28;20054;-82
2022/04/13 06:55:25;;;;;;;13.18;2.47;;;21.30;67.70;;;;;;6222577;28;20042;-81
2022/04/13 06:58:28;;;;;;;8.23;1.85;;;21.40;67.00;;;;;;6224745;28;20128;-81
2022/04/13 07:01:30;;;;;;;9.10;1.48;;;21.60;66.10;;;;;;6224062;28;20048;-81
2022/04/13 07:04:32;;;;;;;4.65;1.73;;;21.90;64.40;;;;;;6224255;28;20431;-82
2022/04/13 07:07:33;;;;;;;8.23;1.83;;;22.40;63.40;;;;;;6224313;28;20056;-81
2022/04/13 07:10:35;;;;;;;13.48;2.08;;;22.90;61.10;;;;;;6226355;28;20052;-81
2022/04/13 07:13:39;;;;;;;5.90;1.65;;;23.40;59.60;;;;;;6216065;28;20097;-82
2022/04/13 07:16:40;;;;;;;9.38;1.80;;;23.80;57.70;;;;;;6204342;28;20050;-82
2022/04/13 07:19:42;;;;;;;6.60;1.70;;;24.20;56.20;;;;;;6217060;28;20085;-81
2022/04/13 07:22:44;;;;;;;5.60;1.77;;;24.60;55.00;;;;;;6217685;28;20054;-84
2022/04/13 07:25:46;;;;;;;5.57;2.05;;;25.10;53.50;;;;;;6226821;28;20527;-82
2022/04/13 07:28:49;;;;;;;5.45;2.13;;;25.40;52.70;;;;;;6226441;28;20389;-82
2022/04/13 07:31:51;;;;;;;7.68;1.52;;;25.70;51.60;;;;;;6230446;28;20492;-84
2022/04/13 07:34:53;;;;;;;12.25;3.45;;;25.90;50.90;;;;;;6230481;28;20050;-83
2022/04/13 07:37:55;;;;;;;8.57;3.17;;;26.00;50.00;;;;;;6230915;28;20042;-78
2022/04/13 07:40:58;;;;;;;6.75;2.30;;;26.00;49.60;;;;;;6231304;28;20045;-82
2022/04/13 07:44:01;;;;;;;12.60;2.83;;;26.00;49.40;;;;;;6233376;28;20068;-84
2022/04/13 07:47:03;;;;;;;11.68;3.65;;;26.10;48.90;;;;;;6232869;28;20050;-83
2022/04/13 07:50:06;;;;;;;5.95;1.58;;;26.30;48.60;;;;;;6232549;28;20088;-83
2022/04/13 07:53:08;;;;;;;14.38;2.75;;;26.70;47.40;;;;;;6218899;28;20060;-82
2022/04/13 07:56:10;;;;;;;5.28;2.10;;;27.10;47.30;;;;;;6230357;28;20045;-81
2022/04/13 07:59:13;;;;;;;6.63;2.13;;;27.60;45.00;;;;;;6238598;28;20537;-84
2022/04/13 08:02:21;;;;;;;11.70;3.63;;;28.10;43.70;;;;;;6230726;28;20045;-83
2022/04/13 08:05:23;;;;;;;2.95;1.10;;;28.50;42.30;;;;;;6230923;28;20049;-83
2022/04/13 08:08:24;;;;;;;2.95;1.40;;;28.70;41.50;;;;;;6230184;28;20510;-85
2022/04/13 08:11:27;;;;;;;7.95;1.40;;;28.70;41.00;;;;;;6229342;28;20057;-84
2022/04/13 08:14:30;;;;;;;5.13;1.48;;;28.60;40.60;;;;;;6210962;28;20447;-83
2022/04/13 08:17:32;;;;;;;10.38;1.40;;;28.50;40.00;;;;;;6206198;28;20121;-83
2022/04/13 08:20:33;;;;;;;7.13;1.40;;;28.40;40.00;;;;;;6205622;28;20050;-84
2022/04/13 08:23:36;;;;;;;5.50;1.45;;;28.40;39.00;;;;;;6220958;28;20419;-82
2022/04/13 08:26:41;;;;;;;7.28;0.80;;;29.10;38.90;;;;;;6228841;28;20058;-83
2022/04/13 08:29:45;;;;;;;11.75;1.23;;;30.10;38.20;;;;;;6228418;28;20045;-83
2022/04/13 08:32:47;;;;;;;4.93;0.90;;;31.00;36.90;;;;;;6230964;28;20058;-84
2022/04/13 08:35:48;;;;;;;6.22;1.42;;;31.60;36.10;;;;;;6228970;28;20543;-82
2022/04/13 08:38:53;;;;;;;6.47;1.30;;;32.00;34.50;;;;;;6229353;28;20042;-84
2022/04/13 08:41:59;;;;;;;9.52;1.50;;;32.30;33.20;;;;;;6229837;28;20042;-84
2022/04/13 08:45:09;;;;;;;6.55;1.40;;;32.30;32.30;;;;;;6232750;28;20167;-82
2022/04/13 08:48:13;;;;;;;7.15;1.40;;;32.60;30.30;;;;;;6232397;28;20064;-83
2022/04/13 08:51:17;;;;;;;4.47;0.80;;;33.00;29.10;;;;;;6225785;28;20042;-83
2022/04/13 08:54:21;;;;;;;3.22;0.85;;;33.20;28.60;;;;;;6219314;28;20042;-81
2022/04/13 08:57:26;;;;;;;5.28;1.08;;;33.50;29.40;;;;;;6227571;28;20048;-83
2022/04/13 09:00:32;;;;;;;6.15;1.20;;;33.80;29.50;;;;;;6228907;28;20561;-83
2022/04/13 09:03:41;;;;;;;4.97;1.30;;;34.00;28.70;;;;;;6226857;28;20063;-84
2022/04/13 09:06:44;;;;;;;5.93;0.85;;;34.00;28.70;;;;;;6227371;28;20172;-81
2022/04/13 09:09:48;;;;;;;9.57;1.83;;;34.20;29.00;;;;;;6227950;28;20045;-83
2022/04/13 09:12:52;;;;;;;5.40;0.98;;;34.30;29.00;;;;;;6228271;28;20053;-83
2022/04/13 09:15:55;;;;;;;7.50;1.50;;;34.10;28.00;;;;;;6208359;28;20413;-83
2022/04/13 09:18:57;;;;;;;6.57;1.05;;;34.20;28.70;;;;;;6204944;28;20093;-84
2022/04/13 09:22:00;;;;;;;5.63;0.90;;;34.30;29.60;;;;;;6204599;28;20523;-84
2022/04/13 09:25:03;;;;;;;7.35;0.95;;;34.70;28.80;;;;;;6205700;28;20053;-84
2022/04/13 09:28:06;;;;;;;5.28;0.95;;;35.00;28.50;;;;;;6205256;28;20227;-85
2022/04/13 09:31:10;;;;;;;3.78;1.35;;;35.20;28.00;;;;;;6204869;28;20054;-83
2022/04/13 09:34:12;;;;;;;4.32;0.82;;;35.30;28.00;;;;;;6204900;28;20070;-83
2022/04/13 09:37:15;;;;;;;3.03;0.80;;;35.60;27.80;;;;;;6204896;28;20056;-84
2022/04/13 09:40:29;;;;;;;6.45;1.25;;;35.70;27.60;;;;;;6205814;28;20054;-83
2022/04/13 09:43:31;;;;;;;2.25;0.82;;;35.70;27.00;;;;;;6203151;28;20690;-82
2022/04/13 09:46:34;;;;;;;4.18;0.65;;;35.80;27.30;;;;;;6205634;28;20073;-83
2022/04/13 09:49:36;;;;;;;6.93;0.70;;;35.80;27.10;;;;;;6204591;28;20038;-85
2022/04/13 09:52:41;;;;;;;6.80;0.95;;;35.50;26.10;;;;;;6213512;28;20046;-84
2022/04/13 09:55:45;;;;;;;4.15;1.20;;;35.00;26.10;;;;;;6178096;28;20508;-82
2022/04/13 09:58:50;;;;;;;5.03;0.75;;;34.50;26.40;;;;;;6178642;28;20526;-83
2022/04/13 10:01:53;;;;;;;1.10;0.63;;;33.90;26.40;;;;;;6181294;28;20054;-84
2022/04/13 10:04:55;;;;;;;6.55;0.65;;;33.20;27.30;;;;;;6183221;28;20105;-84
2022/04/13 10:08:03;;;;;;;9.30;0.95;;;32.80;27.80;;;;;;6180819;28;20062;-82
2022/04/13 10:11:09;;;;;;;5.07;0.80;;;32.50;28.00;;;;;;6181824;28;20047;-84
2022/04/13 10:14:11;;;;;;;3.33;0.80;;;32.20;28.90;;;;;;6183058;28;20050;-84
2022/04/13 10:17:32;;;;;;;5.90;0.75;;;32.10;28.50;;;;;;6203378;28;20042;-85
2022/04/13 10:20:44;;;;;;;6.45;0.80;;;32.10;28.10;;;;;;6204807;28;20060;-85
2022/04/13 10:23:46;;;;;;;7.13;1.05;;;32.00;28.50;;;;;;6207649;28;20054;-84
2022/04/13 10:27:00;;;;;;;3.13;1.15;;;31.90;28.50;;;;;;6205163;28;20141;-83
2022/04/13 10:30:08;;;;;;;4.18;1.25;;;31.90;28.50;;;;;;6202333;28;20389;-83
2022/04/13 10:33:11;;;;;;;;;;;31.90;28.80;;;;;;6206297;28;20127;-85
2022/04/13 10:36:13;;;;;;;7.63;0.75;;;32.00;28.60;;;;;;6203370;28;19922;-83
2022/04/13 10:39:15;;;;;;;6.07;1.48;;;32.10;28.70;;;;;;6204129;28;20492;-82
2022/04/13 10:42:18;;;;;;;5.72;0.70;;;32.10;28.30;;;;;;6216977;28;20034;-84
2022/04/13 10:45:20;;;;;;;6.32;0.85;;;32.20;28.00;;;;;;6228013;28;20070;-82
2022/04/13 10:48:31;;;;;;;2.83;0.73;;;32.30;27.70;;;;;;6215631;28;20054;-83
2022/04/13 10:51:38;;;;;;;5.63;1.23;;;32.40;28.20;;;;;;6219654;28;20041;-84
2022/04/13 10:54:44;;;;;;;8.15;0.75;;;32.50;28.00;;;;;;6214735;28;20104;-83
2022/04/13 10:57:50;;;;;;;3.33;1.35;;;32.70;28.00;;;;;;6208432;28;20050;-84
2022/04/13 11:00:58;;;;;;;4.05;0.98;;;32.70;28.20;;;;;;6208133;28;20070;-83
2022/04/13 11:04:02;;;;;;;4.78;0.82;;;32.70;28.10;;;;;;6206558;28;20046;-84
2022/04/13 11:07:05;;;;;;;11.52;2.83;;;32.60;28.40;;;;;;6204263;28;20049;-84
2022/04/13 11:10:16;;;;;;;4.97;1.40;;;32.60;28.40;;;;;;6204092;28;20050;-84
2022/04/13 11:13:19;;;;;;;4.82;1.30;;;32.70;28.70;;;;;;6206401;28;20049;-83
2022/04/13 11:16:23;;;;;;;4.68;1.63;;;33.00;28.20;;;;;;6205087;28;20050;-84
2022/04/13 11:19:35;;;;;;;5.35;0.98;;;33.00;28.30;;;;;;6205082;28;20050;-83
2022/04/13 11:22:37;;;;;;;5.13;1.20;;;33.00;28.10;;;;;;6213506;28;20042;-82
2022/04/13 11:25:47;;;;;;;3.65;0.88;;;32.90;27.80;;;;;;6230504;28;20065;-83
2022/04/13 11:29:14;;;;;;;2.83;0.80;;;32.90;28.10;;;;;;6231486;28;20057;-83
2022/04/13 11:32:17;;;;;;;4.97;1.30;;;33.00;28.20;;;;;;6233121;28;20419;-83
2022/04/13 11:35:28;;;;;;;7.55;1.10;;;33.10;28.40;;;;;;6230221;28;20056;-84
2022/04/13 11:38:36;;;;;;;4.10;1.17;;;33.20;28.20;;;;;;6213585;28;20093;-82
2022/04/13 11:41:38;;;;;;;5.40;1.13;;;33.30;28.00;;;;;;6207719;28;20447;-83
2022/04/13 11:44:47;;;;;;;6.65;1.00;;;33.30;28.00;;;;;;6208937;28;20078;-84
2022/04/13 11:48:03;;;;;;;6.80;0.93;;;33.40;27.90;;;;;;6228923;28;20049;-84
2022/04/13 11:51:29;;;;;;;7.20;0.82;;;33.30;28.20;;;;;;6230284;28;20053;-86
2022/04/13 11:54:46;;;;;;;7.15;1.42;;;33.50;28.00;;;;;;6210757;28;20069;-83
2022/04/13 11:58:22;;;;;;;7.07;1.30;;;33.50;27.70;;;;;;6205121;28;20042;-82
2022/04/13 12:01:25;;;;;;;6.00;1.30;;;33.50;27.90;;;;;;6204414;28;20046;-82
2022/04/13 12:04:31;;;;;;;4.68;1.27;;;33.60;27.90;;;;;;6204597;28;20074;-84
2022/04/13 12:07:36;;;;;;;6.57;1.17;;;33.70;27.90;;;;;;6202135;28;20102;-86
2022/04/13 12:10:40;;;;;;;2.13;1.02;;;33.70;27.80;;;;;;6206935;28;20043;-80
2022/04/13 12:13:50;;;;;;;5.53;0.90;;;33.80;28.10;;;;;;6203518;28;20038;-84
2022/04/13 12:16:56;;;;;;;4.70;0.85;;;33.90;27.90;;;;;;6207832;28;20074;-84
2022/04/13 12:20:01;;;;;;;4.30;1.20;;;33.90;27.70;;;;;;6185249;28;20043;-82
2022/04/13 12:23:18;;;;;;;7.65;1.23;;;33.90;27.60;;;;;;6211281;28;20054;-84
2022/04/13 12:26:31;;;;;;;9.73;1.20;;;33.90;27.90;;;;;;6205730;28;20050;-84
2022/04/13 12:32:52;;;;;;;5.63;1.05;;;33.90;27.50;;;;;;6206277;28;20057;-84
2022/04/13 12:35:58;;;;;;;6.28;0.90;;;33.90;27.40;;;;;;6206913;28;20124;-83
2022/04/13 12:39:03;;;;;;;5.40;1.08;;;34.00;27.90;;;;;;6209990;28;20057;-83
2022/04/13 12:42:07;;;;;;;3.83;0.95;;;34.00;27.70;;;;;;6205462;28;20054;-82
2022/04/13 12:45:12;;;;;;;14.13;1.27;;;33.90;27.70;;;;;;6207044;28;20046;-83
2022/04/13 12:48:17;;;;;;;8.30;1.33;;;33.80;27.70;;;;;;6206228;28;20402;-84
2022/04/13 12:51:20;;;;;;;7.72;1.00;;;33.80;28.00;;;;;;6204020;28;20058;-84
2022/04/13 12:54:24;;;;;;;7.00;0.90;;;33.80;27.70;;;;;;6217851;28;20050;-84
2022/04/13 12:57:26;;;;;;;7.22;0.93;;;33.90;27.70;;;;;;6227627;28;20401;-84
2022/04/13 13:00:48;;;;;;;7.55;1.65;;;33.90;27.30;;;;;;6227967;28;20053;-83
2022/04/13 13:03:50;;;;;;;10.70;1.20;;;34.00;27.30;;;;;;6228966;28;20425;-83
2022/04/13 13:06:58;;;;;;;9.02;1.55;;;34.10;27.50;;;;;;6228457;28;20132;-84
2022/04/13 13:10:03;;;;;;;8.27;1.20;;;34.10;27.60;;;;;;6231217;28;20046;-82
2022/04/13 13:13:12;;;;;;;4.18;1.10;;;34.10;27.50;;;;;;6226826;28;20129;-84
2022/04/13 13:16:32;;;;;;;10.65;1.48;;;34.10;27.10;;;;;;6228137;28;20125;-83
2022/04/13 13:19:34;;;;;;;7.60;0.95;;;34.00;27.10;;;;;;6214489;28;20424;-84
2022/04/13 13:22:39;;;;;;;9.40;1.40;;;34.00;27.50;;;;;;6211369;28;20077;-85
2022/04/13 13:25:42;;;;;;;7.30;1.27;;;34.00;27.40;;;;;;6205150;28;20042;-84
2022/04/13 13:28:44;;;;;;;4.55;0.85;;;33.90;27.30;;;;;;6203908;28;20074;-85
2022/04/13 13:31:46;;;;;;;7.25;1.00;;;33.90;27.20;;;;;;6204420;28;20508;-85
2022/04/13 13:34:54;;;;;;;8.25;0.93;;;33.90;27.20;;;;;;6204422;28;20057;-84
2022/04/13 13:38:05;;;;;;;8.93;0.95;;;33.90;27.50;;;;;;6203663;28;20109;-84
2022/04/13 13:41:12;;;;;;;5.95;1.00;;;34.00;27.50;;;;;;6203934;28;20631;-84
2022/04/13 13:44:23;;;;;;;6.90;0.98;;;34.00;27.50;;;;;;6205744;28;20050;-83
2022/04/13 13:47:27;;;;;;;11.70;1.33;;;33.90;27.10;;;;;;6205739;28;20066;-84
2022/04/13 13:50:30;;;;;;;8.43;1.30;;;33.80;27.80;;;;;;6205504;28;20049;-82
2022/04/13 13:53:31;;;;;;;5.78;1.05;;;33.70;27.00;;;;;;6218089;28;20433;-84
2022/04/13 13:56:35;;;;;;;4.97;0.90;;;33.50;27.10;;;;;;6206023;28;20089;-90
2022/04/13 13:59:37;;;;;;;5.00;0.98;;;33.50;27.50;;;;;;6207628;28;20053;-84
2022/04/13 14:02:39;;;;;;;10.43;1.30;;;33.70;27.50;;;;;;6210247;28;20054;-83
2022/04/13 14:05:42;;;;;;;4.18;1.23;;;33.70;26.70;;;;;;6231480;28;20312;-84
2022/04/13 14:08:44;;;;;;;8.82;1.05;;;33.50;27.00;;;;;;6249379;28;20070;-84
2022/04/13 14:11:47;;;;;;;6.65;1.15;;;33.50;27.10;;;;;;6237103;28;20050;-84
2022/04/13 14:14:49;;;;;;;9.63;1.10;;;33.20;27.60;;;;;;6233953;28;20104;-84
2022/04/13 14:17:51;;;;;;;3.97;0.95;;;32.90;27.70;;;;;;6231070;28;20085;-82
2022/04/13 14:20:52;;;;;;;9.65;1.10;;;32.70;27.90;;;;;;6210050;28;20082;-84
2022/04/13 14:23:54;;;;;;;5.45;1.23;;;32.70;28.50;;;;;;6222335;28;20088;-83
2022/04/13 14:26:57;;;;;;;7.88;1.02;;;32.90;28.40;;;;;;6232045;28;20084;-83
2022/04/13 14:30:00;;;;;;;5.47;0.80;;;33.10;28.20;;;;;;6231554;28;20108;-84
2022/04/13 14:33:02;;;;;;;5.03;0.88;;;33.10;28.00;;;;;;6232743;28;20058;-84
2022/04/13 14:36:04;;;;;;;5.90;0.80;;;33.10;27.90;;;;;;6234311;28;20050;-84
2022/04/13 14:39:06;;;;;;;7.22;1.10;;;33.10;28.50;;;;;;6232330;28;20060;-84
2022/04/13 14:42:09;;;;;;;7.68;1.08;;;33.10;28.30;;;;;;6232944;28;20128;-84
2022/04/13 14:45:12;;;;;;;5.95;1.20;;;33.00;28.00;;;;;;6232862;28;20512;-84
2022/04/13 14:48:15;;;;;;;5.88;1.02;;;32.90;27.90;;;;;;6234150;28;20070;-84
2022/04/13 14:51:17;;;;;;;5.85;1.10;;;32.80;27.90;;;;;;6230433;28;20111;-84
2022/04/13 14:54:19;;;;;;;12.13;1.52;;;32.80;27.80;;;;;;6224501;28;20061;-83
2022/04/13 14:57:23;;;;;;;7.05;0.93;;;32.80;27.80;;;;;;6233740;28;20042;-84
2022/04/13 15:00:25;;;;;;;7.97;1.05;;;32.70;27.80;;;;;;6230093;28;20112;-83
2022/04/13 15:03:27;;;;;;;3.90;1.20;;;32.70;27.90;;;;;;6228574;28;20061;-84
2022/04/13 15:06:29;;;;;;;8.00;1.00;;;32.80;28.30;;;;;;6229229;28;20065;-83
2022/04/13 15:09:31;;;;;;;11.43;1.58;;;32.80;28.30;;;;;;6221550;28;20042;-82
2022/04/13 15:12:34;;;;;;;6.30;1.23;;;32.70;28.50;;;;;;6203521;28;20113;-83
2022/04/13 15:15:36;;;;;;;2.72;0.60;;;32.60;28.60;;;;;;6205673;28;20113;-83
2022/04/13 15:18:38;;;;;;;8.40;1.05;;;32.50;28.90;;;;;;6205139;28;20531;-84
2022/04/13 15:21:42;;;;;;;10.85;1.17;;;32.30;29.30;;;;;;6209418;28;20112;-84
2022/04/13 15:24:46;;;;;;;9.60;1.10;;;32.00;29.60;;;;;;6223973;28;20116;-85
2022/04/13 15:27:49;;;;;;;4.38;1.08;;;31.80;29.70;;;;;;6234580;28;20080;-85
2022/04/13 15:31:00;;;;;;;7.88;0.90;;;31.60;29.70;;;;;;6237395;28;20073;-84
2022/04/13 15:34:02;;;;;;;6.30;1.13;;;31.50;29.90;;;;;;6235683;28;20056;-85
2022/04/13 15:37:04;;;;;;;9.80;1.15;;;31.30;29.80;;;;;;6235928;28;20081;-84
2022/04/13 15:40:06;;;;;;;4.93;1.10;;;31.20;29.90;;;;;;6237956;28;20050;-84
2022/04/13 15:43:10;;;;;;;12.68;1.20;;;31.10;30.00;;;;;;6237032;28;20096;-84
2022/04/13 15:46:12;;;;;;;6.05;0.98;;;30.90;30.10;;;;;;6233586;28;20054;-84
2022/04/13 15:49:14;;;;;;;3.70;1.13;;;30.70;30.60;;;;;;6236043;28;20049;-84
2022/04/13 15:52:18;;;;;;;1.65;0.70;;;30.50;31.60;;;;;;6234369;28;20101;-84
2022/04/13 15:55:23;;;;;;;4.47;0.80;;;30.30;31.50;;;;;;6215830;28;20050;-84
2022/04/13 15:58:26;;;;;;;5.03;0.98;;;30.10;31.20;;;;;;6235664;28;20069;-83